sensor_id;sensor_type;location;lat;lon;timestamp;pressure;altitude;pressure_sealevel;temperature;humidity
31096;BME280;17749;51.962;8.560;2023-01-28T06:03:10;101346.03;;;0.21;100.00
31096;BME280;17749;51.962;8.560;2023-01-28T06:05:38;101340.72;;;0.18;100.00
31096;BME280;17749;51.962;8.560;2023-01-28T06:08:06;101339.00;;;0.20;100.00
31096;BME280;17749;51.962;8.560;2023-01-28T06:10:34;101336.38;;;0.19;100.00
31096;BME280;17749;51.962;8.560;2023-01-28T06:13:02;101326.88;;;0.24;100.00
31096;BME280;17749;51.962;8.560;2023-01-28T06:15:50;101329.44;;;0.21;100.00
31096;BME280;17749;51.962;8.560;2023-01-28T06:18:26;101336.44;;;0.22;100.00
31096;BME280;17749;51.962;8.560;2023-01-28T06:20:53;101329.44;;;0.21;100.00
31096;BME280;17749;51.962;8.560;2023-01-28T06:23:20;101338.16;;;0.21;100.00
31096;BME280;17749;51.962;8.560;2023-01-28T06:25:52;101341.66;;;0.22;100.00
31096;BME280;17749;51.962;8.560;2023-01-28T06:28:19;101348.66;;;0.23;100.00
31096;BME280;17749;51.962;8.560;2023-01-28T06:30:53;101347.84;;;0.24;100.00
31096;BME280;17749;51.962;8.560;2023-01-28T06:33:23;101336.38;;;0.19;100.00
31096;BME280;17749;51.962;8.560;2023-01-28T06:35:50;101345.16;;;0.22;100.00
31096;BME280;17749;51.962;8.560;2023-01-28T06:38:32;101342.53;;;0.22;100.00
31096;BME280;17749;51.962;8.560;2023-01-28T06:40:59;101341.72;;;0.25;100.00
31096;BME280;17749;51.962;8.560;2023-01-28T06:43:26;101346.09;;;0.26;100.00
31096;BME280;17749;51.962;8.560;2023-01-28T06:45:57;101340.03;;;0.27;100.00
31096;BME280;17749;51.962;8.560;2023-01-28T06:48:25;101334.72;;;0.24;100.00
31096;BME280;17749;51.962;8.560;2023-01-28T06:50:53;101351.34;;;0.25;100.00
31096;BME280;17749;51.962;8.560;2023-01-28T06:53:22;101337.31;;;0.22;100.00
31096;BME280;17749;51.962;8.560;2023-01-28T06:55:52;101343.44;;;0.23;100.00
31096;BME280;17749;51.962;8.560;2023-01-28T06:58:19;101346.91;;;0.22;100.00
31096;BME280;17749;51.962;8.560;2023-01-28T07:00:46;101344.19;;;0.17;100.00
31096;BME280;17749;51.962;8.560;2023-01-28T07:03:23;101346.84;;;0.19;100.00
31096;BME280;17749;51.962;8.560;2023-01-28T07:05:50;101345.88;;;0.14;100.00
31096;BME280;17749;51.962;8.560;2023-01-28T07:08:19;101342.31;;;0.12;100.00
31096;BME280;17749;51.962;8.560;2023-01-28T07:10:46;101340.50;;;0.09;100.00
31096;BME280;17749;51.962;8.560;2023-01-28T07:13:15;101336.16;;;0.10;100.00
31096;BME280;17749;51.962;8.560;2023-01-28T07:15:46;101345.75;;;0.09;100.00
31096;BME280;17749;51.962;8.560;2023-01-28T07:18:14;101349.13;;;0.04;100.00
31096;BME280;17749;51.962;8.560;2023-01-28T07:20:42;101356.97;;;0.04;100.00
31096;BME280;17749;51.962;8.560;2023-01-28T07:23:08;101353.44;;;0.02;100.00
31096;BME280;17749;51.962;8.560;2023-01-28T07:25:35;101351.69;;;0.01;100.00
31096;BME280;17749;51.962;8.560;2023-01-28T07:28:04;101355.19;;;0.03;100.00
31096;BME280;17749;51.962;8.560;2023-01-28T07:30:31;101357.91;;;0.06;100.00
31096;BME280;17749;51.962;8.560;2023-01-28T07:32:58;101353.56;;;0.08;100.00
31096;BME280;17749;51.962;8.560;2023-01-28T07:35:26;101358.91;;;0.11;100.00
31096;BME280;17749;51.962;8.560;2023-01-28T07:37:54;101351.88;;;0.10;100.00
31096;BME280;17749;51.962;8.560;2023-01-28T07:40:22;101354.53;;;0.11;100.00
31096;BME280;17749;51.962;8.560;2023-01-28T07:42:50;101362.41;;;0.13;100.00
31096;BME280;17749;51.962;8.560;2023-01-28T07:45:21;101367.59;;;0.10;100.00
31096;BME280;17749;51.962;8.560;2023-01-28T07:47:59;101366.72;;;0.09;100.00
31096;BME280;17749;51.962;8.560;2023-01-28T07:50:27;101362.31;;;0.08;100.00
31096;BME280;17749;51.962;8.560;2023-01-28T07:53:01;101375.44;;;0.08;100.00
31096;BME280;17749;51.962;8.560;2023-01-28T07:55:28;101376.13;;;0.03;100.00
31096;BME280;17749;51.962;8.560;2023-01-28T07:57:58;101367.22;;;-0.06;100.00
31096;BME280;17749;51.962;8.560;2023-01-28T08:00:28;101369.03;;;-0.05;100.00
31096;BME280;17749;51.962;8.560;2023-01-28T08:02:58;101363.63;;;-0.11;100.00
31096;BME280;17749;51.962;8.560;2023-01-28T08:05:26;101363.47;;;-0.17;100.00
31096;BME280;17749;51.962;8.560;2023-01-28T08:07:56;101376.50;;;-0.20;100.00
31096;BME280;17749;51.962;8.560;2023-01-28T08:10:23;101383.66;;;-0.13;100.00
31096;BME280;17749;51.962;8.560;2023-01-28T08:12:54;101388.19;;;-0.06;100.00
31096;BME280;17749;51.962;8.560;2023-01-28T08:15:22;101389.22;;;0.01;100.00
31096;BME280;17749;51.962;8.560;2023-01-28T08:17:49;101397.09;;;0.01;100.00
31096;BME280;17749;51.962;8.560;2023-01-28T08:20:16;101397.09;;;0.01;100.00
31096;BME280;17749;51.962;8.560;2023-01-28T08:22:44;101400.66;;;0.05;100.00
31096;BME280;17749;51.962;8.560;2023-01-28T08:25:10;101404.19;;;0.07;100.00
31096;BME280;17749;51.962;8.560;2023-01-28T08:27:38;101406.06;;;0.11;100.00
31096;BME280;17749;51.962;8.560;2023-01-28T08:30:05;101407.81;;;0.12;100.00
31096;BME280;17749;51.962;8.560;2023-01-28T08:32:32;101404.41;;;0.16;100.00
31096;BME280;17749;51.962;8.560;2023-01-28T08:34:59;101411.47;;;0.20;100.00
31096;BME280;17749;51.962;8.560;2023-01-28T08:37:25;101415.03;;;0.22;100.00
31096;BME280;17749;51.962;8.560;2023-01-28T08:39:52;101421.22;;;0.26;100.00
31096;BME280;17749;51.962;8.560;2023-01-28T08:42:19;101423.94;;;0.30;100.00
31096;BME280;17749;51.962;8.560;2023-01-28T08:44:46;101424.81;;;0.29;100.00
31096;BME280;17749;51.962;8.560;2023-01-28T08:47:14;101422.22;;;0.31;100.00
31096;BME280;17749;51.962;8.560;2023-01-28T08:49:41;101427.44;;;0.29;100.00
31096;BME280;17749;51.962;8.560;2023-01-28T08:52:08;101435.31;;;0.31;100.00
31096;BME280;17749;51.962;8.560;2023-01-28T08:54:35;101444.97;;;0.33;100.00
31096;BME280;17749;51.962;8.560;2023-01-28T08:57:02;101446.03;;;0.41;100.00
31096;BME280;17749;51.962;8.560;2023-01-28T08:59:29;101442.66;;;0.47;100.00
31096;BME280;17749;51.962;8.560;2023-01-28T09:01:56;101449.75;;;0.51;100.00
31096;BME280;17749;51.962;8.560;2023-01-28T09:04:24;101443.69;;;0.54;100.00
31096;BME280;17749;51.962;8.560;2023-01-28T09:06:51;101465.63;;;0.57;100.00
31096;BME280;17749;51.962;8.560;2023-01-28T09:09:19;101464.63;;;0.52;100.00
31096;BME280;17749;51.962;8.560;2023-01-28T09:11:49;101462.75;;;0.47;100.00
31096;BME280;17749;51.962;8.560;2023-01-28T09:16:46;101478.78;;;0.59;100.00
31096;BME280;17749;51.962;8.560;2023-01-28T09:19:13;101468.28;;;0.59;100.00
31096;BME280;17749;51.962;8.560;2023-01-28T09:21:41;101479.59;;;0.56;100.00
31096;BME280;17749;51.962;8.560;2023-01-28T09:24:11;101473.47;;;0.56;100.00
31096;BME280;17749;51.962;8.560;2023-01-28T09:26:38;101467.41;;;0.60;100.00
31096;BME280;17749;51.962;8.560;2023-01-28T09:29:05;101489.25;;;0.59;100.00
31096;BME280;17749;51.962;8.560;2023-01-28T09:31:32;101495.38;;;0.58;100.00
31096;BME280;17749;51.962;8.560;2023-01-28T09:33:59;101492.75;;;0.58;100.00
31096;BME280;17749;51.962;8.560;2023-01-28T09:36:26;101491.00;;;0.60;100.00
31096;BME280;17749;51.962;8.560;2023-01-28T09:38:53;101486.69;;;0.60;100.00
31096;BME280;17749;51.962;8.560;2023-01-28T09:41:25;101493.75;;;0.64;100.00
31096;BME280;17749;51.962;8.560;2023-01-28T09:46:29;101486.94;;;0.73;100.00
31096;BME280;17749;51.962;8.560;2023-01-28T09:48:59;101485.31;;;0.78;100.00
31096;BME280;17749;51.962;8.560;2023-01-28T09:51:29;101491.28;;;0.72;100.00
31096;BME280;17749;51.962;8.560;2023-01-28T09:54:01;101493.97;;;0.74;100.00
31096;BME280;17749;51.962;8.560;2023-01-28T09:56:35;101501.84;;;0.75;100.00
31096;BME280;17749;51.962;8.560;2023-01-28T09:59:19;101500.16;;;0.77;100.00
31096;BME280;17749;51.962;8.560;2023-01-28T10:01:53;101511.41;;;0.73;100.00
31096;BME280;17749;51.962;8.560;2023-01-28T10:07:20;101503.41;;;0.67;100.00
31096;BME280;17749;51.962;8.560;2023-01-28T10:12:38;101493.00;;;0.70;100.00
31096;BME280;17749;51.962;8.560;2023-01-28T10:15:24;101485.28;;;0.76;100.00
31096;BME280;17749;51.962;8.560;2023-01-28T10:18:00;101476.66;;;0.82;100.00
31096;BME280;17749;51.962;8.560;2023-01-28T10:23:21;101475.09;;;0.92;100.00
31096;BME280;17749;51.962;8.560;2023-01-28T10:25:50;101468.22;;;0.97;100.00
31096;BME280;17749;51.962;8.560;2023-01-28T10:28:19;101472.69;;;1.01;100.00
31096;BME280;17749;51.962;8.560;2023-01-28T10:30:47;101477.09;;;1.03;100.00
31096;BME280;17749;51.962;8.560;2023-01-28T10:33:22;101477.09;;;1.03;100.00
31096;BME280;17749;51.962;8.560;2023-01-28T10:35:57;101476.22;;;1.03;100.00
31096;BME280;17749;51.962;8.560;2023-01-28T10:38:24;101482.31;;;1.02;100.00
31096;BME280;17749;51.962;8.560;2023-01-28T10:40:55;101479.78;;;1.05;100.00
31096;BME280;17749;51.962;8.560;2023-01-28T10:43:25;101469.28;;;1.05;100.00
31096;BME280;17749;51.962;8.560;2023-01-28T10:46:04;101474.53;;;1.05;100.00
31096;BME280;17749;51.962;8.560;2023-01-28T10:48:37;101474.31;;;0.96;100.00
31096;BME280;17749;51.962;8.560;2023-01-28T10:51:07;101493.47;;;0.92;100.00
31096;BME280;17749;51.962;8.560;2023-01-28T10:53:40;101492.41;;;0.83;100.00
31096;BME280;17749;51.962;8.560;2023-01-28T10:58:49;101493.41;;;0.88;100.00
31096;BME280;17749;51.962;8.560;2023-01-28T11:01:19;101497.75;;;0.88;100.00
31096;BME280;17749;51.962;8.560;2023-01-28T11:03:54;101507.56;;;0.97;100.00
31096;BME280;17749;51.962;8.560;2023-01-28T11:06:27;101493.66;;;1.01;100.00
31096;BME280;17749;51.962;8.560;2023-01-28T11:08:55;101505.22;;;1.09;100.00
31096;BME280;17749;51.962;8.560;2023-01-28T11:11:26;101505.19;;;1.07;100.00
31096;BME280;17749;51.962;8.560;2023-01-28T11:13:53;101503.41;;;1.06;100.00
31096;BME280;17749;51.962;8.560;2023-01-28T11:16:24;101495.53;;;1.05;100.00
31096;BME280;17749;51.962;8.560;2023-01-28T11:19:03;101493.72;;;1.04;100.00
31096;BME280;17749;51.962;8.560;2023-01-28T11:21:33;101502.59;;;1.09;100.00
31096;BME280;17749;51.962;8.560;2023-01-28T11:24:04;101505.25;;;1.12;100.00
31096;BME280;17749;51.962;8.560;2023-01-28T11:26:36;101499.19;;;1.13;100.00
31096;BME280;17749;51.962;8.560;2023-01-28T11:29:04;101492.16;;;1.12;100.00
31096;BME280;17749;51.962;8.560;2023-01-28T11:31:41;101488.59;;;1.10;100.00
31096;BME280;17749;51.962;8.560;2023-01-28T11:34:15;101483.44;;;1.13;100.00
31096;BME280;17749;51.962;8.560;2023-01-28T11:36:54;101487.03;;;1.18;100.00
31096;BME280;17749;51.962;8.560;2023-01-28T11:39:26;101493.13;;;1.17;100.00
31096;BME280;17749;51.962;8.560;2023-01-28T11:42:15;101480.88;;;1.16;100.00
31096;BME280;17749;51.962;8.560;2023-01-28T11:44:43;101485.31;;;1.20;100.00
31096;BME280;17749;51.962;8.560;2023-01-28T11:52:43;101471.41;;;1.24;100.00
31096;BME280;17749;51.962;8.560;2023-01-28T11:55:36;101458.41;;;1.30;100.00
31096;BME280;17749;51.962;8.560;2023-01-28T12:06:51;101440.34;;;1.47;100.00
31096;BME280;17749;51.962;8.560;2023-01-28T12:21:04;101422.22;;;1.14;100.00
31096;BME280;17749;51.962;8.560;2023-01-28T12:23:40;101430.09;;;1.14;100.00
31096;BME280;17749;51.962;8.560;2023-01-28T12:26:25;101419.50;;;1.09;100.00
31096;BME280;17749;51.962;8.560;2023-01-28T12:29:20;101402.78;;;1.03;100.00
31096;BME280;17749;51.962;8.560;2023-01-28T12:40:35;101347.38;;;0.87;100.00
31096;BME280;17749;51.962;8.560;2023-01-28T12:43:10;101339.31;;;0.78;100.00
31096;BME280;17749;51.962;8.560;2023-01-28T12:45:40;101346.22;;;0.73;100.00
31096;BME280;17749;51.962;8.560;2023-01-28T12:48:14;101327.81;;;0.70;100.00
31096;BME280;17749;51.962;8.560;2023-01-28T12:50:46;101304.09;;;0.64;100.00
31096;BME280;17749;51.962;8.560;2023-01-28T12:55:54;101306.81;;;0.69;100.00
31096;BME280;17749;51.962;8.560;2023-01-28T12:58:36;101311.72;;;0.52;100.00
31096;BME280;17749;51.962;8.560;2023-01-28T13:01:09;101328.47;;;0.60;100.00
31096;BME280;17749;51.962;8.560;2023-01-28T13:03:49;101348.56;;;0.59;100.00
31096;BME280;17749;51.962;8.560;2023-01-28T13:06:26;101357.09;;;0.49;100.00
31096;BME280;17749;51.962;8.560;2023-01-28T13:09:00;101332.69;;;0.52;100.00
31096;BME280;17749;51.962;8.560;2023-01-28T13:11:33;101334.31;;;0.45;100.00
31096;BME280;17749;51.962;8.560;2023-01-28T13:14:02;101332.56;;;0.47;100.00
31096;BME280;17749;51.962;8.560;2023-01-28T13:16:29;101337.09;;;0.54;100.00
31096;BME280;17749;51.962;8.560;2023-01-28T13:19:08;101338.06;;;0.58;100.00
31096;BME280;17749;51.962;8.560;2023-01-28T13:21:47;101331.91;;;0.56;100.00
31096;BME280;17749;51.962;8.560;2023-01-28T13:26:51;101349.50;;;0.61;100.00
31096;BME280;17749;51.962;8.560;2023-01-28T13:29:26;101346.88;;;0.61;100.00
31096;BME280;17749;51.962;8.560;2023-01-28T13:31:56;101366.97;;;0.61;100.00
31096;BME280;17749;51.962;8.560;2023-01-28T13:34:36;101379.25;;;0.65;100.00
31096;BME280;17749;51.962;8.560;2023-01-28T13:37:36;101388.97;;;0.69;100.00
31096;BME280;17749;51.962;8.560;2023-01-28T13:42:34;101379.25;;;0.65;100.00
31096;BME280;17749;51.962;8.560;2023-01-28T13:48:17;101392.31;;;0.60;100.00
31096;BME280;17749;51.962;8.560;2023-01-28T13:51:29;101391.22;;;0.52;100.00
31096;BME280;17749;51.962;8.560;2023-01-28T13:54:42;101393.03;;;0.55;100.00
31096;BME280;17749;51.962;8.560;2023-01-28T14:06:43;101386.91;;;0.53;100.00
31096;BME280;17749;51.962;8.560;2023-01-28T14:19:56;101340.38;;;0.42;100.00
31096;BME280;17749;51.962;8.560;2023-01-28T14:22:24;101329.94;;;0.47;100.00
31096;BME280;17749;51.962;8.560;2023-01-28T14:24:51;101314.22;;;0.46;100.00
31096;BME280;17749;51.962;8.560;2023-01-28T14:27:34;101305.44;;;0.43;100.00
31096;BME280;17749;51.962;8.560;2023-01-28T14:33:08;101315.06;;;0.44;100.00
31096;BME280;17749;51.962;8.560;2023-01-28T14:35:39;101324.75;;;0.49;100.00
31096;BME280;17749;51.962;8.560;2023-01-28T14:38:14;101319.50;;;0.49;100.00
31096;BME280;17749;51.962;8.560;2023-01-28T14:40:42;101326.41;;;0.43;100.00
31096;BME280;17749;51.962;8.560;2023-01-28T14:43:15;101310.63;;;0.40;100.00
31096;BME280;17749;51.962;8.560;2023-01-28T14:48:23;101337.88;;;0.49;100.00
31096;BME280;17749;51.962;8.560;2023-01-28T14:51:04;101356.16;;;0.46;100.00
31096;BME280;17749;51.962;8.560;2023-01-28T14:59:11;101372.47;;;0.34;100.00
31096;BME280;17749;51.962;8.560;2023-01-28T15:01:46;101378.53;;;0.31;100.00
31096;BME280;17749;51.962;8.560;2023-01-28T15:04:31;101390.75;;;0.29;100.00
31096;BME280;17749;51.962;8.560;2023-01-28T15:07:17;101390.66;;;0.26;100.00
31096;BME280;17749;51.962;8.560;2023-01-28T15:09:45;101391.44;;;0.22;100.00
31096;BME280;17749;51.962;8.560;2023-01-28T15:12:14;101370.44;;;0.20;100.00
31096;BME280;17749;51.962;8.560;2023-01-28T15:14:43;101366.03;;;0.18;100.00
31096;BME280;17749;51.962;8.560;2023-01-28T15:17:23;101366.88;;;0.17;100.00
31096;BME280;17749;51.962;8.560;2023-01-28T15:19:53;101375.56;;;0.14;100.00
31096;BME280;17749;51.962;8.560;2023-01-28T15:22:25;101369.38;;;0.11;100.00
31096;BME280;17749;51.962;8.560;2023-01-28T15:24:54;101383.31;;;0.10;100.00
31096;BME280;17749;51.962;8.560;2023-01-28T15:27:26;101374.44;;;0.05;100.00
31096;BME280;17749;51.962;8.560;2023-01-28T15:29:56;101377.00;;;0.02;100.00
31096;BME280;17749;51.962;8.560;2023-01-28T15:32:30;101383.09;;;0.01;100.00
31096;BME280;17749;51.962;8.560;2023-01-28T15:35:00;101381.31;;;-0.02;100.00
31096;BME280;17749;51.962;8.560;2023-01-28T15:37:27;101385.56;;;-0.06;100.00
31096;BME280;17749;51.962;8.560;2023-01-28T15:40:03;101386.34;;;-0.10;100.00
31096;BME280;17749;51.962;8.560;2023-01-28T15:42:34;101394.16;;;-0.11;100.00
31096;BME280;17749;51.962;8.560;2023-01-28T15:45:03;101393.16;;;-0.16;100.00
31096;BME280;17749;51.962;8.560;2023-01-28T15:47:32;101384.38;;;-0.20;100.00
31096;BME280;17749;51.962;8.560;2023-01-28T15:50:04;101400.00;;;-0.23;100.00
31096;BME280;17749;51.962;8.560;2023-01-28T15:52:38;101393.75;;;-0.28;100.00
31096;BME280;17749;51.962;8.560;2023-01-28T15:55:19;101389.28;;;-0.32;100.00
31096;BME280;17749;51.962;8.560;2023-01-28T15:57:54;101396.22;;;-0.34;100.00
31096;BME280;17749;51.962;8.560;2023-01-28T16:00:22;101399.69;;;-0.35;100.00
31096;BME280;17749;51.962;8.560;2023-01-28T16:02:52;101406.59;;;-0.39;100.00
31096;BME280;17749;51.962;8.560;2023-01-28T16:05:40;101419.56;;;-0.42;100.00
31096;BME280;17749;51.962;8.560;2023-01-28T16:08:10;101422.09;;;-0.47;100.00
31096;BME280;17749;51.962;8.560;2023-01-28T16:10:37;101428.94;;;-0.52;100.00
31096;BME280;17749;51.962;8.560;2023-01-28T16:13:13;101427.06;;;-0.56;100.00
31096;BME280;17749;51.962;8.560;2023-01-28T16:15:53;101423.44;;;-0.61;100.00
31096;BME280;17749;51.962;8.560;2023-01-28T16:18:42;101423.28;;;-0.67;100.00
31096;BME280;17749;51.962;8.560;2023-01-28T16:21:20;101432.75;;;-0.72;100.00
31096;BME280;17749;51.962;8.560;2023-01-28T16:27:27;101443.97;;;-0.76;100.00
31096;BME280;17749;51.962;8.560;2023-01-28T16:29:55;101452.53;;;-0.82;100.00
31096;BME280;17749;51.962;8.560;2023-01-28T16:32:33;101463.78;;;-0.86;100.00
31096;BME280;17749;51.962;8.560;2023-01-28T16:35:01;101454.84;;;-0.93;100.00
31096;BME280;17749;51.962;8.560;2023-01-28T16:37:29;101446.88;;;-0.97;100.00
31096;BME280;17749;51.962;8.560;2023-01-28T16:39:56;101429.28;;;-1.03;100.00
31096;BME280;17749;51.962;8.560;2023-01-28T16:42:26;101436.09;;;-1.08;100.00
31096;BME280;17749;51.962;8.560;2023-01-28T16:44:53;101431.66;;;-1.12;100.00
31096;BME280;17749;51.962;8.560;2023-01-28T16:47:20;101416.69;;;-1.16;100.00
31096;BME280;17749;51.962;8.560;2023-01-28T16:49:47;101411.34;;;-1.21;100.00
31096;BME280;17749;51.962;8.560;2023-01-28T16:52:14;101404.25;;;-1.25;100.00
31096;BME280;17749;51.962;8.560;2023-01-28T16:54:43;101405.94;;;-1.27;100.00
31096;BME280;17749;51.962;8.560;2023-01-28T16:57:17;101407.53;;;-1.32;100.00
31096;BME280;17749;51.962;8.560;2023-01-28T16:59:44;101406.56;;;-1.36;100.00
31096;BME280;17749;51.962;8.560;2023-01-28T17:02:12;101414.41;;;-1.36;100.00
31096;BME280;17749;51.962;8.560;2023-01-28T17:04:40;101415.22;;;-1.37;100.00
31096;BME280;17749;51.962;8.560;2023-01-28T17:07:07;101406.56;;;-1.36;100.00
31096;BME280;17749;51.962;8.560;2023-01-28T17:09:34;101406.47;;;-1.39;100.00
31096;BME280;17749;51.962;8.560;2023-01-28T17:12:01;101416.00;;;-1.41;100.00
31096;BME280;17749;51.962;8.560;2023-01-28T17:14:29;101420.34;;;-1.41;100.00
31096;BME280;17749;51.962;8.560;2023-01-28T17:16:56;101412.50;;;-1.41;100.00
31096;BME280;17749;51.962;8.560;2023-01-28T17:19:30;101416.88;;;-1.40;100.00
31096;BME280;17749;51.962;8.560;2023-01-28T17:21:57;101400.03;;;-1.50;100.00
31096;BME280;17749;51.962;8.560;2023-01-28T17:24:25;101427.97;;;-1.49;100.00
31096;BME280;17749;51.962;8.560;2023-01-28T17:26:52;101422.53;;;-1.55;100.00
31096;BME280;17749;51.962;8.560;2023-01-28T17:29:19;101435.56;;;-1.57;100.00
31096;BME280;17749;51.962;8.560;2023-01-28T17:31:46;101448.66;;;-1.55;100.00
31096;BME280;17749;51.962;8.560;2023-01-28T17:34:13;101436.25;;;-1.62;100.00
31096;BME280;17749;51.962;8.560;2023-01-28T17:36:40;101445.78;;;-1.64;100.00
31096;BME280;17749;51.962;8.560;2023-01-28T17:39:08;101452.59;;;-1.68;100.00
31096;BME280;17749;51.962;8.560;2023-01-28T17:41:35;101455.19;;;-1.69;100.00
31096;BME280;17749;51.962;8.560;2023-01-28T17:44:02;101453.13;;;-1.80;100.00
31096;BME280;17749;51.962;8.560;2023-01-28T17:46:30;101445.22;;;-1.81;100.00
31096;BME280;17749;51.962;8.560;2023-01-28T17:48:57;101425.72;;;-1.92;100.00
31096;BME280;17749;51.962;8.560;2023-01-28T17:51:24;101428.28;;;-1.94;100.00
31096;BME280;17749;51.962;8.560;2023-01-28T17:53:52;101433.28;;;-2.02;100.00
31096;BME280;17749;51.962;8.560;2023-01-28T17:56:25;101435.03;;;-2.01;100.00
31096;BME280;17749;51.962;8.560;2023-01-28T17:58:55;101445.50;;;-2.01;100.00
31096;BME280;17749;51.962;8.560;2023-01-28T18:01:23;101443.75;;;-2.00;100.00
31096;BME280;17749;51.962;8.560;2023-01-28T18:03:53;101450.66;;;-2.02;100.00
31096;BME280;17749;51.962;8.560;2023-01-28T18:06:21;101454.00;;;-2.06;100.00
31096;BME280;17749;51.962;8.560;2023-01-28T18:08:50;101462.72;;;-2.06;100.00
31096;BME280;17749;51.962;8.560;2023-01-28T18:11:30;101460.91;;;-2.08;100.00
31096;BME280;17749;51.962;8.560;2023-01-28T18:14:03;101446.72;;;-2.16;100.00
31096;BME280;17749;51.962;8.560;2023-01-28T18:16:30;101450.97;;;-2.20;100.00
31096;BME280;17749;51.962;8.560;2023-01-28T18:18:57;101463.94;;;-2.22;100.00
31096;BME280;17749;51.962;8.560;2023-01-28T18:24:19;101468.84;;;-2.31;100.00
31096;BME280;17749;51.962;8.560;2023-01-28T18:27:00;101460.28;;;-2.27;100.00
31096;BME280;17749;51.962;8.560;2023-01-28T18:29:32;101460.09;;;-2.33;100.00
31096;BME280;17749;51.962;8.560;2023-01-28T18:32:08;101474.91;;;-2.32;100.00
31096;BME280;17749;51.962;8.560;2023-01-28T18:34:50;101472.19;;;-2.35;100.00
31096;BME280;17749;51.962;8.560;2023-01-28T18:37:22;101475.75;;;-2.33;100.00
31096;BME280;17749;51.962;8.560;2023-01-28T18:39:49;101476.56;;;-2.34;100.00
31096;BME280;17749;51.962;8.560;2023-01-28T18:42:32;101481.63;;;-2.38;100.00
31096;BME280;17749;51.962;8.560;2023-01-28T18:45:01;101498.28;;;-2.35;100.00
31096;BME280;17749;51.962;8.560;2023-01-28T18:47:28;101497.28;;;-2.38;100.00
31096;BME280;17749;51.962;8.560;2023-01-28T18:50:05;101496.19;;;-2.45;100.00
31096;BME280;17749;51.962;8.560;2023-01-28T18:52:35;101495.13;;;-2.50;100.00
31096;BME280;17749;51.962;8.560;2023-01-28T18:55:02;101490.78;;;-2.51;100.00
31096;BME280;17749;51.962;8.560;2023-01-28T18:57:47;101497.75;;;-2.50;100.00
31096;BME280;17749;51.962;8.560;2023-01-28T19:00:27;101498.69;;;-2.48;100.00
31096;BME280;17749;51.962;8.560;2023-01-28T19:03:09;101496.00;;;-2.51;100.00
31096;BME280;17749;51.962;8.560;2023-01-28T19:05:50;101491.66;;;-2.51;100.00
31096;BME280;17749;51.962;8.560;2023-01-28T19:08:25;101509.13;;;-2.48;100.00
31096;BME280;17749;51.962;8.560;2023-01-28T19:11:06;101508.09;;;-2.53;100.00
31096;BME280;17749;51.962;8.560;2023-01-28T19:13:34;101514.19;;;-2.53;100.00
31096;BME280;17749;51.962;8.560;2023-01-28T19:16:03;101520.28;;;-2.52;100.00
31096;BME280;17749;51.962;8.560;2023-01-28T19:18:31;101512.25;;;-2.58;100.00
31096;BME280;17749;51.962;8.560;2023-01-28T19:21:02;101511.38;;;-2.59;100.00
31096;BME280;17749;51.962;8.560;2023-01-28T19:23:31;101518.28;;;-2.59;100.00
31096;BME280;17749;51.962;8.560;2023-01-28T19:26:15;101512.06;;;-2.63;100.00
31096;BME280;17749;51.962;8.560;2023-01-28T19:28:47;101513.63;;;-2.68;100.00
31096;BME280;17749;51.962;8.560;2023-01-28T19:31:21;101524.16;;;-2.65;100.00
31096;BME280;17749;51.962;8.560;2023-01-28T19:33:56;101525.06;;;-2.65;100.00
31096;BME280;17749;51.962;8.560;2023-01-28T19:36:25;101534.56;;;-2.67;100.00
31096;BME280;17749;51.962;8.560;2023-01-28T19:39:00;101533.59;;;-2.69;100.00
31096;BME280;17749;51.962;8.560;2023-01-28T19:41:30;101512.53;;;-2.75;100.00
31096;BME280;17749;51.962;8.560;2023-01-28T19:44:03;101506.28;;;-2.78;100.00
31096;BME280;17749;51.962;8.560;2023-01-28T19:46:35;101515.84;;;-2.79;100.00
31096;BME280;17749;51.962;8.560;2023-01-28T19:49:03;101503.50;;;-2.83;100.00
31096;BME280;17749;51.962;8.560;2023-01-28T19:51:32;101503.66;;;-2.80;100.00
31096;BME280;17749;51.962;8.560;2023-01-28T19:54:01;101501.16;;;-2.77;100.00
31096;BME280;17749;51.962;8.560;2023-01-28T19:56:43;101500.91;;;-2.83;100.00
31096;BME280;17749;51.962;8.560;2023-01-28T19:59:24;101495.66;;;-2.84;100.00
31096;BME280;17749;51.962;8.560;2023-01-28T20:02:07;101496.53;;;-2.84;100.00
31096;BME280;17749;51.962;8.560;2023-01-28T20:04:53;101482.53;;;-2.86;100.00
31096;BME280;17749;51.962;8.560;2023-01-28T20:07:40;101498.28;;;-2.83;100.00
31096;BME280;17749;51.962;8.560;2023-01-28T20:10:21;101498.25;;;-2.84;100.00
31096;BME280;17749;51.962;8.560;2023-01-28T20:13:04;101506.13;;;-2.83;100.00
31096;BME280;17749;51.962;8.560;2023-01-28T20:15:31;101491.22;;;-2.87;100.00
31096;BME280;17749;51.962;8.560;2023-01-28T20:17:58;101495.59;;;-2.86;100.00
31096;BME280;17749;51.962;8.560;2023-01-28T20:20:26;101496.63;;;-2.81;100.00
31096;BME280;17749;51.962;8.560;2023-01-28T20:22:53;101475.78;;;-2.81;100.00
31096;BME280;17749;51.962;8.560;2023-01-28T20:25:20;101484.63;;;-2.77;100.00
31096;BME280;17749;51.962;8.560;2023-01-28T20:27:47;101474.91;;;-2.81;100.00
31096;BME280;17749;51.962;8.560;2023-01-28T20:30:15;101483.78;;;-2.76;100.00
31096;BME280;17749;51.962;8.560;2023-01-28T20:32:43;101484.56;;;-2.79;100.00
31096;BME280;17749;51.962;8.560;2023-01-28T20:35:10;101481.06;;;-2.79;100.00
31096;BME280;17749;51.962;8.560;2023-01-28T20:37:37;101474.03;;;-2.82;100.00
31096;BME280;17749;51.962;8.560;2023-01-28T20:40:04;101487.34;;;-2.74;100.00
31096;BME280;17749;51.962;8.560;2023-01-28T20:42:32;101476.81;;;-2.77;100.00
31096;BME280;17749;51.962;8.560;2023-01-28T20:44:59;101484.75;;;-2.73;100.00
31096;BME280;17749;51.962;8.560;2023-01-28T20:47:26;101470.63;;;-2.79;100.00
31096;BME280;17749;51.962;8.560;2023-01-28T20:49:53;101473.25;;;-2.79;100.00